createdAt,value
2022-10-11T00:00:05.313Z,69.01
2022-10-11T00:02:32.155Z,68.80
2022-10-11T00:05:01.975Z,69.13
2022-10-11T00:07:28.931Z,69.18
2022-10-11T00:09:55.884Z,69.88
2022-10-11T00:12:22.690Z,70.14
2022-10-11T00:14:49.568Z,70.24
2022-10-11T00:17:17.220Z,70.47
2022-10-11T00:19:44.361Z,70.19
2022-10-11T00:22:11.516Z,70.25
2022-10-11T00:24:38.714Z,70.02
2022-10-11T00:27:15.949Z,70.24
2022-10-11T00:29:42.809Z,70.42
2022-10-11T00:32:09.719Z,70.75
2022-10-11T00:34:36.836Z,71.06
2022-10-11T00:37:10.943Z,71.31
2022-10-11T00:39:38.207Z,71.72
2022-10-11T00:42:05.237Z,71.72
2022-10-11T00:44:33.802Z,71.62
2022-10-11T00:47:13.858Z,72.18
2022-10-11T00:49:44.700Z,71.80
2022-10-11T00:52:14.481Z,72.25
2022-10-11T00:54:43.795Z,72.54
2022-10-11T00:57:22.756Z,72.63
2022-10-11T00:59:52.891Z,72.61
2022-10-11T01:02:21.217Z,72.51
2022-10-11T01:04:57.312Z,72.68
2022-10-11T01:07:33.595Z,72.40
2022-10-11T01:10:00.794Z,72.74
2022-10-11T01:12:30.460Z,73.07
2022-10-11T01:15:06.937Z,73.32
2022-10-11T01:17:33.748Z,73.37
2022-10-11T01:20:32.197Z,73.25
2022-10-11T01:23:32.991Z,73.50
2022-10-11T01:26:26.786Z,73.19
2022-10-11T01:29:18.212Z,74.03
2022-10-11T01:32:11.025Z,73.87
2022-10-11T01:34:57.450Z,74.35
2022-10-11T01:37:36.558Z,74.74
2022-10-11T01:40:18.508Z,74.35
2022-10-11T01:42:46.826Z,74.51
2022-10-11T01:45:17.455Z,75.15
2022-10-11T01:47:46.005Z,74.99
2022-10-11T01:50:39.083Z,74.91
2022-10-11T01:53:37.486Z,75.18
2022-10-11T01:56:22.926Z,75.02
2022-10-11T01:59:08.485Z,74.85
2022-10-11T02:01:44.345Z,75.29
2022-10-11T02:04:29.757Z,75.65
2022-10-11T02:07:13.618Z,75.50
2022-10-11T02:09:47.099Z,75.29
2022-10-11T02:12:20.187Z,75.72
2022-10-11T02:14:50.378Z,76.07
2022-10-11T02:17:22.310Z,76.08
2022-10-11T02:19:53.229Z,76.21
2022-10-11T02:22:24.722Z,75.96
2022-10-11T02:24:55.746Z,75.83
2022-10-11T02:27:28.105Z,75.90
2022-10-11T02:29:59.977Z,76.38
2022-10-11T02:32:29.860Z,76.44
2022-10-11T02:35:00.297Z,76.81
2022-10-11T02:37:36.281Z,77.42
2022-10-11T02:40:23.775Z,77.47
2022-10-11T02:43:05.159Z,77.48
2022-10-11T02:45:37.410Z,76.83
2022-10-11T02:48:06.774Z,77.54
2022-10-11T02:50:34.166Z,77.47
2022-10-11T02:53:00.900Z,77.40
2022-10-11T02:55:27.711Z,77.78
2022-10-11T02:57:54.494Z,77.75
2022-10-11T03:00:21.339Z,78.19
2022-10-11T03:02:48.240Z,78.11
2022-10-11T03:05:15.017Z,77.90
2022-10-11T03:07:41.901Z,78.03
2022-10-11T03:10:09.106Z,78.47
2022-10-11T03:12:36.076Z,78.35
2022-10-11T03:15:02.838Z,78.12
2022-10-11T03:17:36.606Z,78.44
2022-10-11T03:20:38.444Z,78.54
2022-10-11T03:23:31.943Z,78.52
2022-10-11T03:25:58.777Z,78.03
2022-10-11T03:28:25.541Z,78.02
2022-10-11T03:30:52.706Z,77.99
2022-10-11T03:33:20.320Z,78.24
2022-10-11T03:35:48.282Z,77.97
2022-10-11T03:38:18.715Z,78.31
2022-10-11T03:40:45.761Z,78.57
2022-10-11T03:43:13.312Z,78.54
2022-10-11T03:45:42.582Z,78.21
2022-10-11T03:48:09.716Z,78.52
2022-10-11T03:50:37.734Z,78.23
2022-10-11T03:53:06.438Z,78.43
2022-10-11T03:55:33.215Z,78.81
2022-10-11T03:57:59.952Z,79.20
2022-10-11T04:00:26.778Z,79.32
2022-10-11T04:02:53.635Z,79.61
2022-10-11T04:05:20.653Z,79.58
2022-10-11T04:07:47.430Z,79.95
2022-10-11T04:10:14.481Z,80.15
2022-10-11T04:12:41.312Z,80.00
2022-10-11T04:15:08.427Z,79.71
2022-10-11T04:17:35.210Z,80.00
2022-10-11T04:20:01.929Z,80.37
2022-10-11T04:22:28.751Z,80.52
2022-10-11T04:24:55.565Z,80.42
2022-10-11T04:27:22.501Z,80.34
2022-10-11T04:29:49.263Z,80.29
2022-10-11T04:32:15.989Z,80.03
2022-10-11T04:34:42.737Z,79.85
2022-10-11T04:37:15.590Z,79.79
2022-10-11T04:39:42.408Z,79.79
2022-10-11T04:42:09.146Z,80.06
2022-10-11T04:44:36.021Z,80.65
2022-10-11T04:47:02.846Z,80.62
2022-10-11T04:49:29.580Z,80.78
2022-10-11T04:51:56.430Z,80.61
2022-10-11T04:54:26.041Z,80.76
2022-10-11T04:56:52.833Z,80.70
2022-10-11T04:59:19.609Z,80.84
2022-10-11T05:01:46.419Z,81.06
2022-10-11T05:04:13.530Z,80.77
2022-10-11T05:06:40.397Z,80.45
2022-10-11T05:09:07.207Z,80.69
2022-10-11T05:11:33.920Z,81.23
2022-10-11T05:14:00.818Z,81.21
2022-10-11T05:16:28.302Z,81.31
2022-10-11T05:18:55.129Z,81.12
2022-10-11T05:21:24.735Z,80.99
2022-10-11T05:23:53.214Z,81.53
2022-10-11T05:26:21.386Z,81.59
2022-10-11T05:28:48.448Z,81.68
2022-10-11T05:31:16.383Z,81.47
2022-10-11T05:33:43.137Z,81.71
2022-10-11T05:36:10.688Z,81.62
2022-10-11T05:38:37.699Z,81.41
2022-10-11T05:41:05.646Z,81.03
2022-10-11T05:43:32.562Z,81.03
2022-10-11T05:45:59.460Z,81.19
2022-10-11T05:48:26.973Z,81.06
2022-10-11T05:51:03.302Z,81.01
2022-10-11T05:53:30.480Z,80.94
2022-10-11T05:55:57.870Z,80.89
2022-10-11T05:58:25.052Z,80.87
2022-10-11T06:00:52.120Z,80.88
2022-10-11T06:03:21.217Z,80.72
2022-10-11T06:05:48.024Z,80.92
2022-10-11T06:08:16.126Z,81.07
2022-10-11T06:10:42.945Z,80.22
2022-10-11T06:13:09.758Z,80.28
2022-10-11T06:15:39.310Z,79.76
2022-10-11T06:18:06.081Z,79.77
2022-10-11T06:20:32.969Z,79.83
2022-10-11T06:23:00.121Z,79.93
2022-10-11T06:25:27.059Z,80.11
2022-10-11T06:27:53.943Z,79.69
2022-10-11T06:30:20.696Z,79.63
2022-10-11T06:32:47.625Z,80.21
2022-10-11T06:35:14.680Z,80.25
2022-10-11T06:37:41.537Z,80.46
2022-10-11T06:40:09.083Z,80.71
2022-10-11T06:42:37.339Z,80.17
2022-10-11T06:45:04.508Z,79.90
2022-10-11T06:47:31.240Z,80.01
2022-10-11T06:49:58.576Z,79.70
2022-10-11T06:52:25.399Z,79.75
2022-10-11T06:54:52.147Z,79.40
2022-10-11T06:57:22.017Z,80.10
2022-10-11T06:59:48.908Z,79.98
2022-10-11T07:02:15.825Z,79.59
2022-10-11T07:04:42.624Z,79.16
2022-10-11T07:07:15.247Z,79.25
2022-10-11T07:09:42.162Z,79.08
2022-10-11T07:12:09.361Z,79.18
2022-10-11T07:14:36.274Z,79.33
2022-10-11T07:17:03.457Z,79.11
2022-10-11T07:19:30.422Z,79.27
2022-10-11T07:21:57.223Z,79.65
2022-10-11T07:24:23.978Z,79.62
2022-10-11T07:26:51.069Z,79.77
2022-10-11T07:29:18.118Z,79.98
2022-10-11T07:31:44.996Z,79.78
2022-10-11T07:34:12.207Z,79.85
2022-10-11T07:36:39.022Z,80.07
2022-10-11T07:39:07.724Z,80.29
2022-10-11T07:41:35.084Z,80.23
2022-10-11T07:44:02.008Z,80.05
2022-10-11T07:46:28.788Z,80.04
2022-10-11T07:48:55.721Z,79.95
2022-10-11T07:51:24.039Z,79.70
2022-10-11T07:53:56.058Z,79.68
2022-10-11T07:56:29.431Z,79.39
2022-10-11T07:59:03.767Z,79.36
2022-10-11T08:01:31.437Z,79.10
2022-10-11T08:03:58.998Z,78.94
2022-10-11T08:06:30.690Z,78.87
2022-10-11T08:09:01.200Z,78.86
2022-10-11T08:11:34.778Z,78.67
2022-10-11T08:14:02.597Z,78.61
2022-10-11T08:16:29.490Z,78.73
2022-10-11T08:18:57.355Z,78.81
2022-10-11T08:21:24.643Z,78.45
2022-10-11T08:23:51.394Z,78.54
2022-10-11T08:26:18.771Z,78.50
2022-10-11T08:28:45.746Z,77.76
2022-10-11T08:31:14.901Z,77.53
2022-10-11T08:33:42.071Z,77.76
2022-10-11T08:36:10.211Z,77.15
2022-10-11T08:38:38.181Z,78.11
2022-10-11T08:41:33.654Z,77.35
2022-10-11T08:44:13.342Z,77.16
2022-10-11T08:46:43.398Z,77.73
2022-10-11T08:49:13.757Z,77.54
2022-10-11T08:52:09.048Z,77.30
2022-10-11T08:54:45.600Z,76.90
2022-10-11T08:57:25.062Z,76.75
2022-10-11T08:59:59.296Z,76.70
2022-10-11T09:03:03.053Z,75.94
2022-10-11T09:05:25.886Z,75.77
2022-10-11T09:08:23.922Z,76.03
2022-10-11T09:11:04.647Z,76.06
2022-10-11T09:14:02.104Z,75.92
2022-10-11T09:17:01.589Z,75.08
2022-10-11T09:20:10.244Z,74.33
2022-10-11T09:22:56.124Z,73.89
2022-10-11T09:25:58.361Z,73.50
2022-10-11T09:29:06.092Z,73.01
2022-10-11T09:31:33.896Z,72.40
2022-10-11T09:34:11.969Z,72.94
2022-10-11T09:36:55.176Z,72.94
2022-10-11T09:39:46.068Z,72.90
2022-10-11T09:42:35.545Z,73.40
2022-10-11T09:45:06.285Z,73.33
2022-10-11T09:47:37.211Z,72.85
2022-10-11T09:50:16.545Z,71.93
2022-10-11T09:52:51.422Z,71.69
2022-10-11T09:55:53.858Z,71.84
2022-10-11T09:58:37.690Z,71.95
2022-10-11T10:01:12.543Z,71.92
2022-10-11T10:03:42.162Z,72.10
2022-10-11T10:06:17.510Z,71.91
2022-10-11T10:08:50.291Z,71.67
2022-10-11T10:11:18.769Z,71.58
2022-10-11T10:13:54.556Z,71.78
2022-10-11T10:16:30.886Z,70.55
2022-10-11T10:19:05.259Z,70.05
2022-10-11T10:21:36.278Z,69.71
2022-10-11T10:24:09.807Z,69.83
2022-10-11T10:26:36.704Z,69.49
2022-10-11T10:29:09.401Z,69.54
2022-10-11T10:34:56.988Z,69.52
2022-10-11T10:37:34.910Z,69.56
2022-10-11T10:40:07.705Z,69.87
2022-10-11T10:42:34.931Z,69.24
2022-10-11T10:45:13.061Z,68.21
2022-10-11T10:47:59.461Z,67.89
2022-10-11T10:50:39.994Z,68.17
2022-10-11T10:53:27.613Z,67.38
2022-10-11T10:56:06.572Z,67.44
2022-10-11T10:58:53.404Z,67.10
2022-10-11T11:01:34.155Z,66.92
2022-10-11T11:04:27.039Z,67.21
2022-10-11T11:07:20.261Z,67.02
2022-10-11T11:10:16.524Z,66.16
2022-10-11T11:12:54.257Z,65.74
2022-10-11T11:15:43.684Z,65.67
2022-10-11T11:18:28.661Z,64.34
2022-10-11T11:21:00.026Z,64.36
2022-10-11T11:23:43.824Z,63.46
2022-10-11T11:26:19.903Z,63.85
2022-10-11T11:29:02.768Z,63.67
2022-10-11T11:32:10.337Z,63.16
2022-10-11T11:34:52.254Z,62.69
2022-10-11T11:37:34.332Z,61.70
2022-10-11T11:40:35.241Z,62.01
2022-10-11T11:43:07.614Z,62.57
2022-10-11T11:46:09.815Z,62.18
2022-10-11T11:48:55.655Z,61.70
2022-10-11T11:51:30.719Z,61.22
2022-10-11T11:54:22.635Z,61.36
2022-10-11T11:57:03.274Z,58.83
2022-10-11T11:59:51.654Z,59.07
2022-10-11T12:02:56.582Z,59.43
2022-10-11T12:05:32.017Z,59.71
2022-10-11T12:08:08.473Z,60.03
2022-10-11T12:10:37.897Z,59.63
2022-10-11T12:13:34.898Z,59.13
2022-10-11T12:16:04.493Z,59.47
2022-10-11T12:18:32.558Z,59.83
2022-10-11T12:21:22.225Z,60.31
2022-10-11T12:23:52.817Z,60.16
2022-10-11T12:26:28.391Z,59.52
2022-10-11T12:29:18.945Z,59.11
2022-10-11T12:31:55.968Z,58.99
2022-10-11T12:37:33.416Z,59.64
2022-10-11T12:40:37.286Z,59.10
2022-10-11T12:43:16.253Z,58.69
2022-10-11T12:45:52.076Z,57.75
2022-10-11T12:48:42.582Z,58.07
2022-10-11T12:51:34.156Z,57.31
2022-10-11T12:54:42.200Z,57.81
2022-10-11T12:57:47.630Z,56.65
2022-10-11T13:00:31.405Z,56.60
2022-10-11T13:03:04.990Z,57.12
2022-10-11T13:05:48.766Z,57.28
2022-10-11T13:08:27.111Z,57.84
2022-10-11T13:10:57.339Z,57.33
2022-10-11T13:13:32.275Z,58.24
2022-10-11T13:16:07.336Z,56.73
2022-10-11T13:18:34.473Z,56.75
2022-10-11T13:21:16.578Z,56.70
2022-10-11T13:23:45.012Z,56.85
2022-10-11T13:26:11.795Z,57.63
2022-10-11T13:28:39.075Z,57.89
2022-10-11T13:31:06.499Z,58.25
2022-10-11T13:33:44.058Z,57.55
2022-10-11T13:36:19.707Z,57.86
2022-10-11T13:38:57.515Z,58.29
2022-10-11T13:41:28.330Z,57.63
2022-10-11T13:43:57.545Z,57.28
2022-10-11T13:46:29.701Z,57.54
2022-10-11T13:48:59.824Z,57.35
2022-10-11T13:51:39.527Z,57.97
2022-10-11T13:54:13.074Z,57.87
2022-10-11T13:56:43.424Z,56.88
2022-10-11T13:59:20.450Z,56.13
2022-10-11T14:01:47.658Z,55.58
2022-10-11T14:07:51.804Z,56.68
2022-10-11T14:10:21.856Z,56.50
2022-10-11T14:13:24.213Z,56.60
2022-10-11T14:16:11.200Z,54.92
2022-10-11T14:18:48.941Z,55.69
2022-10-11T14:21:28.458Z,55.72
2022-10-11T14:23:58.876Z,55.02
2022-10-11T14:26:27.539Z,55.54
2022-10-11T14:29:31.936Z,55.78
2022-10-11T14:32:07.929Z,55.62
2022-10-11T14:34:35.602Z,55.67
2022-10-11T14:37:02.662Z,55.72
2022-10-11T14:39:31.973Z,56.20
2022-10-11T14:41:59.558Z,56.17
2022-10-11T14:44:26.577Z,56.02
2022-10-11T14:46:54.710Z,56.46
2022-10-11T14:49:29.256Z,56.86
2022-10-11T14:51:58.922Z,57.44
2022-10-11T14:54:29.237Z,56.35
2022-10-11T14:57:01.806Z,56.93
2022-10-11T14:59:34.695Z,56.79
2022-10-11T15:02:05.552Z,58.07
2022-10-11T15:04:36.459Z,58.02
2022-10-11T15:07:17.436Z,57.63
2022-10-11T15:09:45.554Z,56.67
2022-10-11T15:12:14.402Z,56.73
2022-10-11T15:14:41.197Z,57.06
2022-10-11T15:17:22.737Z,57.39
2022-10-11T15:19:50.927Z,57.33
2022-10-11T15:22:17.772Z,56.64
2022-10-11T15:24:49.371Z,56.03
2022-10-11T15:27:20.027Z,56.17
2022-10-11T15:29:47.244Z,56.46
2022-10-11T15:32:14.014Z,56.52
2022-10-11T15:34:40.791Z,56.83
2022-10-11T15:37:30.219Z,57.28
2022-10-11T15:39:59.480Z,57.75
2022-10-11T15:42:26.297Z,58.10
2022-10-11T15:44:59.312Z,57.98
2022-10-11T15:47:26.335Z,57.38
2022-10-11T15:49:53.112Z,56.87
2022-10-11T15:52:19.877Z,56.49
2022-10-11T15:54:46.601Z,56.28
2022-10-11T15:57:31.024Z,56.04
2022-10-11T16:00:01.549Z,57.07
2022-10-11T16:02:28.720Z,57.05
2022-10-11T16:04:55.477Z,55.16
2022-10-11T16:07:24.146Z,55.34
2022-10-11T16:09:50.956Z,56.05
2022-10-11T16:12:17.843Z,56.03
2022-10-11T16:14:49.751Z,56.66
2022-10-11T16:17:26.518Z,57.74
2022-10-11T16:19:55.041Z,58.71
2022-10-11T16:22:21.950Z,59.20
2022-10-11T16:24:50.692Z,59.41
2022-10-11T16:27:19.013Z,59.92
2022-10-11T16:29:45.948Z,60.33
2022-10-11T16:32:12.832Z,60.03
2022-10-11T16:34:44.474Z,60.33
2022-10-11T16:37:24.411Z,60.15
2022-10-11T16:39:53.926Z,60.63
2022-10-11T16:42:20.780Z,59.74
2022-10-11T16:44:47.715Z,60.07
2022-10-11T16:47:17.051Z,59.93
2022-10-11T16:49:43.824Z,59.92
2022-10-11T16:52:11.223Z,60.01
2022-10-11T16:54:38.303Z,59.48
2022-10-11T16:57:05.092Z,60.07
2022-10-11T16:59:31.898Z,59.87
2022-10-11T17:01:58.758Z,59.60
2022-10-11T17:04:25.540Z,59.26
2022-10-11T17:06:54.384Z,59.70
2022-10-11T17:09:21.578Z,59.80
2022-10-11T17:11:48.426Z,60.17
2022-10-11T17:14:15.253Z,60.39
2022-10-11T17:16:42.558Z,60.62
2022-10-11T17:19:12.421Z,61.29
2022-10-11T17:21:39.547Z,61.22
2022-10-11T17:24:07.437Z,61.45
2022-10-11T17:26:34.256Z,61.74
2022-10-11T17:29:01.387Z,62.19
2022-10-11T17:31:29.933Z,62.44
2022-10-11T17:34:01.052Z,62.42
2022-10-11T17:36:32.013Z,62.78
2022-10-11T17:39:00.268Z,62.71
2022-10-11T17:41:31.812Z,63.24
2022-10-11T17:43:59.636Z,63.25
2022-10-11T17:46:27.862Z,63.35
2022-10-11T17:48:55.779Z,63.75
2022-10-11T17:51:22.939Z,63.16
2022-10-11T17:53:51.119Z,62.96
2022-10-11T17:56:24.041Z,63.53
2022-10-11T17:58:56.393Z,63.98
2022-10-11T18:01:25.650Z,63.85
2022-10-11T18:03:58.497Z,63.81
2022-10-11T18:06:28.823Z,63.81
2022-10-11T18:08:57.504Z,64.36
2022-10-11T18:11:24.679Z,64.54
2022-10-11T18:13:52.993Z,64.64
2022-10-11T18:16:22.508Z,64.65
2022-10-11T18:18:49.360Z,65.02
2022-10-11T18:21:18.585Z,64.82
2022-10-11T18:23:46.979Z,64.79
2022-10-11T18:26:19.168Z,65.51
2022-10-11T18:28:46.155Z,65.34
2022-10-11T18:31:16.853Z,65.29
2022-10-11T18:33:46.138Z,65.57
2022-10-11T18:36:15.450Z,65.42
2022-10-11T18:38:46.522Z,65.08
2022-10-11T18:41:15.493Z,65.17
2022-10-11T18:43:42.940Z,65.09
2022-10-11T18:46:12.716Z,65.54
2022-10-11T18:48:44.335Z,66.45
2022-10-11T18:51:15.066Z,66.26
2022-10-11T18:53:42.328Z,65.92
2022-10-11T18:56:10.835Z,66.17
2022-10-11T18:58:39.069Z,66.42
2022-10-11T19:01:12.628Z,66.75
2022-10-11T19:03:39.525Z,66.58
2022-10-11T19:06:17.011Z,65.99
2022-10-11T19:08:52.823Z,67.03
2022-10-11T19:11:22.349Z,67.49
2022-10-11T19:14:03.171Z,67.59
2022-10-11T19:16:30.652Z,68.21
2022-10-11T19:18:58.079Z,68.12
2022-10-11T19:21:24.867Z,67.83
2022-10-11T19:23:52.253Z,68.89
2022-10-11T19:26:22.302Z,69.27
2022-10-11T19:28:55.359Z,69.40
2022-10-11T19:31:22.177Z,69.59
2022-10-11T19:33:49.776Z,69.97
2022-10-11T19:36:17.622Z,70.10
2022-10-11T19:38:46.448Z,70.19
2022-10-11T19:41:14.028Z,70.22
2022-10-11T19:43:40.898Z,70.13
2022-10-11T19:46:09.885Z,69.49
2022-10-11T19:48:38.296Z,70.41
2022-10-11T19:51:07.311Z,71.07
2022-10-11T19:53:34.889Z,70.96
2022-10-11T19:56:04.499Z,71.16
2022-10-11T19:58:31.605Z,71.62
2022-10-11T20:01:10.535Z,71.79
2022-10-11T20:03:38.263Z,71.40
2022-10-11T20:06:07.683Z,71.74
2022-10-11T20:08:35.487Z,71.10
2022-10-11T20:11:05.428Z,70.98
2022-10-11T20:13:35.076Z,70.65
2022-10-11T20:16:06.592Z,70.72
2022-10-11T20:18:33.544Z,71.03
2022-10-11T20:21:06.085Z,71.06
2022-10-11T20:23:33.825Z,71.31
2022-10-11T20:26:15.818Z,71.55
2022-10-11T20:28:43.306Z,72.13
2022-10-11T20:31:15.536Z,72.53
2022-10-11T20:33:42.855Z,72.98
2022-10-11T20:36:20.789Z,72.67
2022-10-11T20:38:49.005Z,72.26
2022-10-11T20:41:25.078Z,72.23
2022-10-11T20:43:54.557Z,72.13
2022-10-11T20:46:24.549Z,72.08
2022-10-11T20:49:00.396Z,72.21
2022-10-11T20:51:30.746Z,72.38
2022-10-11T20:53:59.018Z,71.76
2022-10-11T20:56:25.942Z,71.76
2022-10-11T20:58:58.364Z,71.69
2022-10-11T21:01:28.184Z,71.85
2022-10-11T21:03:57.968Z,71.65
2022-10-11T21:06:25.439Z,72.09
2022-10-11T21:08:54.237Z,72.48
2022-10-11T21:11:21.068Z,72.85
2022-10-11T21:13:47.976Z,73.10
2022-10-11T21:16:16.618Z,72.30
2022-10-11T21:18:43.354Z,72.30
2022-10-11T21:21:12.919Z,72.54
2022-10-11T21:23:40.264Z,72.33
2022-10-11T21:26:09.972Z,72.80
2022-10-11T21:28:36.911Z,72.83
2022-10-11T21:31:08.510Z,72.92
2022-10-11T21:33:35.475Z,73.42
2022-10-11T21:36:08.119Z,73.14
2022-10-11T21:38:35.542Z,73.26
2022-10-11T21:41:04.042Z,73.22
2022-10-11T21:43:31.003Z,72.81
2022-10-11T21:45:58.053Z,72.97
2022-10-11T21:48:24.826Z,73.05
2022-10-11T21:50:55.255Z,73.17
2022-10-11T21:53:22.330Z,72.69
2022-10-11T21:55:49.076Z,72.33
2022-10-11T21:58:15.814Z,71.76
2022-10-11T22:00:42.547Z,71.61
2022-10-11T22:03:09.442Z,71.70
2022-10-11T22:05:36.205Z,71.94
2022-10-11T22:08:02.952Z,72.57
2022-10-11T22:10:29.859Z,72.72
2022-10-11T22:12:56.848Z,72.51
2022-10-11T22:15:23.613Z,73.00
2022-10-11T22:17:50.338Z,73.07
2022-10-11T22:20:17.226Z,73.22
2022-10-11T22:22:43.941Z,73.33
2022-10-11T22:25:10.705Z,73.53
2022-10-11T22:27:37.601Z,74.09
2022-10-11T22:30:04.572Z,73.71
2022-10-11T22:32:31.357Z,74.00
2022-10-11T22:34:58.308Z,73.69
2022-10-11T22:37:26.225Z,73.16
2022-10-11T22:39:52.978Z,73.08
2022-10-11T22:42:24.119Z,73.27
2022-10-11T22:44:53.575Z,73.71
2022-10-11T22:47:20.406Z,73.81
2022-10-11T22:49:47.427Z,74.28
2022-10-11T22:52:14.151Z,74.48
2022-10-11T22:54:40.866Z,74.02
2022-10-11T22:57:15.212Z,73.75
2022-10-11T22:59:41.964Z,73.50
2022-10-11T23:02:09.073Z,73.69
2022-10-11T23:04:35.793Z,73.51
2022-10-11T23:07:04.953Z,73.41
2022-10-11T23:09:32.072Z,74.03
2022-10-11T23:11:59.719Z,73.78
2022-10-11T23:14:26.617Z,73.81
2022-10-11T23:16:53.916Z,73.29
2022-10-11T23:19:20.955Z,73.38
2022-10-11T23:21:47.716Z,73.33
2022-10-11T23:24:14.515Z,72.90
2022-10-11T23:26:41.394Z,73.13
2022-10-11T23:29:08.212Z,72.70
2022-10-11T23:31:35.036Z,73.10
2022-10-11T23:34:02.256Z,73.54
2022-10-11T23:36:29.094Z,73.73
2022-10-11T23:38:58.719Z,73.54
2022-10-11T23:41:29.696Z,73.77
2022-10-11T23:44:00.345Z,73.79
2022-10-11T23:46:27.153Z,73.36
2022-10-11T23:48:53.880Z,73.60
2022-10-11T23:51:25.163Z,73.74
2022-10-11T23:53:51.927Z,73.88
2022-10-11T23:56:18.728Z,73.79
2022-10-11T23:58:45.597Z,73.74
